sensor_id;sensor_type;location;lat;lon;timestamp;P1;durP1;ratioP1;P2;durP2;ratioP2
32760;SDS011;19126;47.472;7.850;2022-09-09T00:00:19;3.53;;;1.60;;
32760;SDS011;19126;47.472;7.850;2022-09-09T00:02:49;14.88;;;1.77;;
32760;SDS011;19126;47.472;7.850;2022-09-09T00:05:28;4.22;;;1.27;;
32760;SDS011;19126;47.472;7.850;2022-09-09T00:08:02;4.20;;;1.60;;
32760;SDS011;19126;47.472;7.850;2022-09-09T00:10:31;6.60;;;1.60;;
32760;SDS011;19126;47.472;7.850;2022-09-09T00:13:05;6.70;;;1.95;;
32760;SDS011;19126;47.472;7.850;2022-09-09T00:15:45;11.77;;;2.30;;
32760;SDS011;19126;47.472;7.850;2022-09-09T00:18:24;8.25;;;1.95;;
32760;SDS011;19126;47.472;7.850;2022-09-09T00:21:01;4.90;;;2.00;;
32760;SDS011;19126;47.472;7.850;2022-09-09T00:23:33;11.88;;;1.90;;
32760;SDS011;19126;47.472;7.850;2022-09-09T00:28:38;10.13;;;2.38;;
32760;SDS011;19126;47.472;7.850;2022-09-09T00:31:14;6.70;;;2.20;;
32760;SDS011;19126;47.472;7.850;2022-09-09T00:33:47;5.20;;;2.17;;
32760;SDS011;19126;47.472;7.850;2022-09-09T00:36:17;7.63;;;2.33;;
32760;SDS011;19126;47.472;7.850;2022-09-09T00:38:48;14.23;;;2.00;;
32760;SDS011;19126;47.472;7.850;2022-09-09T00:41:21;4.88;;;1.70;;
32760;SDS011;19126;47.472;7.850;2022-09-09T00:44:00;6.95;;;1.95;;
32760;SDS011;19126;47.472;7.850;2022-09-09T00:46:44;11.95;;;1.70;;
32760;SDS011;19126;47.472;7.850;2022-09-09T00:49:38;5.93;;;1.83;;
32760;SDS011;19126;47.472;7.850;2022-09-09T00:52:21;4.97;;;1.92;;
32760;SDS011;19126;47.472;7.850;2022-09-09T00:55:00;6.70;;;2.10;;
32760;SDS011;19126;47.472;7.850;2022-09-09T00:57:37;9.85;;;2.63;;
32760;SDS011;19126;47.472;7.850;2022-09-09T01:00:20;7.45;;;2.08;;
32760;SDS011;19126;47.472;7.850;2022-09-09T01:02:54;7.63;;;3.03;;
32760;SDS011;19126;47.472;7.850;2022-09-09T01:05:39;8.07;;;1.95;;
32760;SDS011;19126;47.472;7.850;2022-09-09T01:08:14;14.27;;;2.22;;
32760;SDS011;19126;47.472;7.850;2022-09-09T01:11:08;16.23;;;2.47;;
32760;SDS011;19126;47.472;7.850;2022-09-09T01:13:42;10.88;;;2.20;;
32760;SDS011;19126;47.472;7.850;2022-09-09T01:16:11;5.30;;;2.67;;
32760;SDS011;19126;47.472;7.850;2022-09-09T01:18:46;11.45;;;2.55;;
32760;SDS011;19126;47.472;7.850;2022-09-09T01:21:20;13.40;;;3.03;;
32760;SDS011;19126;47.472;7.850;2022-09-09T01:24:09;4.80;;;2.17;;
32760;SDS011;19126;47.472;7.850;2022-09-09T01:26:52;3.25;;;1.90;;
32760;SDS011;19126;47.472;7.850;2022-09-09T01:29:23;8.63;;;2.03;;
32760;SDS011;19126;47.472;7.850;2022-09-09T01:31:52;9.63;;;2.30;;
32760;SDS011;19126;47.472;7.850;2022-09-09T01:34:22;5.13;;;2.35;;
32760;SDS011;19126;47.472;7.850;2022-09-09T01:36:53;11.65;;;2.53;;
32760;SDS011;19126;47.472;7.850;2022-09-09T01:39:29;5.72;;;2.20;;
32760;SDS011;19126;47.472;7.850;2022-09-09T01:41:59;9.68;;;1.92;;
32760;SDS011;19126;47.472;7.850;2022-09-09T01:44:28;8.95;;;2.22;;
32760;SDS011;19126;47.472;7.850;2022-09-09T01:46:57;12.35;;;2.38;;
32760;SDS011;19126;47.472;7.850;2022-09-09T01:49:24;13.30;;;2.67;;
32760;SDS011;19126;47.472;7.850;2022-09-09T01:51:52;13.68;;;2.80;;
32760;SDS011;19126;47.472;7.850;2022-09-09T01:54:22;11.57;;;2.90;;
32760;SDS011;19126;47.472;7.850;2022-09-09T01:56:54;7.93;;;2.80;;
32760;SDS011;19126;47.472;7.850;2022-09-09T02:02:29;11.98;;;2.72;;
32760;SDS011;19126;47.472;7.850;2022-09-09T02:05:05;9.98;;;2.35;;
32760;SDS011;19126;47.472;7.850;2022-09-09T02:07:44;10.25;;;2.53;;
32760;SDS011;19126;47.472;7.850;2022-09-09T02:10:16;8.52;;;3.03;;
32760;SDS011;19126;47.472;7.850;2022-09-09T02:12:50;7.20;;;2.25;;
32760;SDS011;19126;47.472;7.850;2022-09-09T02:15:28;15.32;;;2.65;;
32760;SDS011;19126;47.472;7.850;2022-09-09T02:18:01;9.73;;;2.40;;
32760;SDS011;19126;47.472;7.850;2022-09-09T02:20:33;6.47;;;2.15;;
32760;SDS011;19126;47.472;7.850;2022-09-09T02:23:03;13.95;;;2.58;;
32760;SDS011;19126;47.472;7.850;2022-09-09T02:25:32;11.18;;;2.33;;
32760;SDS011;19126;47.472;7.850;2022-09-09T02:28:03;13.65;;;2.17;;
32760;SDS011;19126;47.472;7.850;2022-09-09T02:30:34;9.60;;;2.35;;
32760;SDS011;19126;47.472;7.850;2022-09-09T02:33:04;17.15;;;2.25;;
32760;SDS011;19126;47.472;7.850;2022-09-09T02:35:35;5.57;;;2.17;;
32760;SDS011;19126;47.472;7.850;2022-09-09T02:38:04;3.70;;;1.67;;
32760;SDS011;19126;47.472;7.850;2022-09-09T02:40:36;6.78;;;2.15;;
32760;SDS011;19126;47.472;7.850;2022-09-09T02:43:05;6.82;;;2.70;;
32760;SDS011;19126;47.472;7.850;2022-09-09T02:45:34;9.60;;;2.40;;
32760;SDS011;19126;47.472;7.850;2022-09-09T02:48:12;10.90;;;1.98;;
32760;SDS011;19126;47.472;7.850;2022-09-09T02:50:49;17.52;;;2.30;;
32760;SDS011;19126;47.472;7.850;2022-09-09T02:53:28;11.75;;;2.13;;
32760;SDS011;19126;47.472;7.850;2022-09-09T02:56:08;5.55;;;2.00;;
32760;SDS011;19126;47.472;7.850;2022-09-09T02:58:41;10.93;;;2.35;;
32760;SDS011;19126;47.472;7.850;2022-09-09T03:01:09;8.77;;;2.20;;
32760;SDS011;19126;47.472;7.850;2022-09-09T03:03:36;5.93;;;2.17;;
32760;SDS011;19126;47.472;7.850;2022-09-09T03:06:04;4.63;;;2.00;;
32760;SDS011;19126;47.472;7.850;2022-09-09T03:08:32;7.45;;;2.45;;
32760;SDS011;19126;47.472;7.850;2022-09-09T03:10:59;4.82;;;2.00;;
32760;SDS011;19126;47.472;7.850;2022-09-09T03:13:27;4.45;;;1.65;;
32760;SDS011;19126;47.472;7.850;2022-09-09T03:15:55;9.65;;;2.35;;
32760;SDS011;19126;47.472;7.850;2022-09-09T03:18:22;5.13;;;2.10;;
32760;SDS011;19126;47.472;7.850;2022-09-09T03:20:50;6.30;;;1.95;;
32760;SDS011;19126;47.472;7.850;2022-09-09T03:23:19;8.65;;;2.53;;
32760;SDS011;19126;47.472;7.850;2022-09-09T03:25:47;12.73;;;2.15;;
32760;SDS011;19126;47.472;7.850;2022-09-09T03:28:16;9.25;;;2.17;;
32760;SDS011;19126;47.472;7.850;2022-09-09T03:30:43;13.65;;;2.55;;
32760;SDS011;19126;47.472;7.850;2022-09-09T03:33:12;9.02;;;1.80;;
32760;SDS011;19126;47.472;7.850;2022-09-09T03:35:44;6.88;;;2.15;;
32760;SDS011;19126;47.472;7.850;2022-09-09T03:38:13;14.18;;;2.33;;
32760;SDS011;19126;47.472;7.850;2022-09-09T03:40:47;4.30;;;2.00;;
32760;SDS011;19126;47.472;7.850;2022-09-09T03:43:16;12.18;;;2.70;;
32760;SDS011;19126;47.472;7.850;2022-09-09T03:45:45;13.68;;;2.38;;
32760;SDS011;19126;47.472;7.850;2022-09-09T03:48:14;7.85;;;2.08;;
32760;SDS011;19126;47.472;7.850;2022-09-09T03:50:44;7.15;;;2.00;;
32760;SDS011;19126;47.472;7.850;2022-09-09T03:53:11;9.88;;;2.40;;
32760;SDS011;19126;47.472;7.850;2022-09-09T03:55:43;6.63;;;2.50;;
32760;SDS011;19126;47.472;7.850;2022-09-09T03:58:10;4.25;;;2.13;;
32760;SDS011;19126;47.472;7.850;2022-09-09T04:00:38;7.28;;;2.85;;
32760;SDS011;19126;47.472;7.850;2022-09-09T04:03:07;11.02;;;2.72;;
32760;SDS011;19126;47.472;7.850;2022-09-09T04:05:36;13.32;;;3.47;;
32760;SDS011;19126;47.472;7.850;2022-09-09T04:08:07;8.60;;;2.58;;
32760;SDS011;19126;47.472;7.850;2022-09-09T04:10:34;7.60;;;2.60;;
32760;SDS011;19126;47.472;7.850;2022-09-09T04:13:02;8.05;;;3.05;;
32760;SDS011;19126;47.472;7.850;2022-09-09T04:15:29;7.57;;;2.50;;
32760;SDS011;19126;47.472;7.850;2022-09-09T04:17:57;12.77;;;2.65;;
32760;SDS011;19126;47.472;7.850;2022-09-09T04:20:24;15.07;;;2.83;;
32760;SDS011;19126;47.472;7.850;2022-09-09T04:22:53;12.77;;;2.30;;
32760;SDS011;19126;47.472;7.850;2022-09-09T04:25:20;6.35;;;3.22;;
32760;SDS011;19126;47.472;7.850;2022-09-09T04:27:47;7.15;;;2.70;;
32760;SDS011;19126;47.472;7.850;2022-09-09T04:32:46;5.88;;;3.03;;
32760;SDS011;19126;47.472;7.850;2022-09-09T04:35:13;8.77;;;3.20;;
32760;SDS011;19126;47.472;7.850;2022-09-09T04:37:40;8.20;;;3.45;;
32760;SDS011;19126;47.472;7.850;2022-09-09T04:40:09;8.52;;;3.50;;
32760;SDS011;19126;47.472;7.850;2022-09-09T04:42:37;9.88;;;3.08;;
32760;SDS011;19126;47.472;7.850;2022-09-09T04:45:09;16.60;;;3.17;;
32760;SDS011;19126;47.472;7.850;2022-09-09T04:47:38;10.57;;;3.58;;
32760;SDS011;19126;47.472;7.850;2022-09-09T04:50:06;8.25;;;2.97;;
32760;SDS011;19126;47.472;7.850;2022-09-09T04:52:34;5.43;;;1.85;;
32760;SDS011;19126;47.472;7.850;2022-09-09T04:55:02;5.90;;;2.33;;
32760;SDS011;19126;47.472;7.850;2022-09-09T04:57:32;7.10;;;2.63;;
32760;SDS011;19126;47.472;7.850;2022-09-09T05:00:00;6.05;;;2.85;;
32760;SDS011;19126;47.472;7.850;2022-09-09T05:02:29;5.13;;;2.55;;
32760;SDS011;19126;47.472;7.850;2022-09-09T05:04:57;6.03;;;3.42;;
32760;SDS011;19126;47.472;7.850;2022-09-09T05:07:26;7.75;;;3.25;;
32760;SDS011;19126;47.472;7.850;2022-09-09T05:09:54;13.25;;;2.72;;
32760;SDS011;19126;47.472;7.850;2022-09-09T05:12:21;5.32;;;2.95;;
32760;SDS011;19126;47.472;7.850;2022-09-09T05:14:52;3.70;;;2.33;;
32760;SDS011;19126;47.472;7.850;2022-09-09T05:17:19;9.13;;;2.97;;
32760;SDS011;19126;47.472;7.850;2022-09-09T05:19:46;7.47;;;3.10;;
32760;SDS011;19126;47.472;7.850;2022-09-09T05:22:17;7.63;;;3.00;;
32760;SDS011;19126;47.472;7.850;2022-09-09T05:24:46;11.43;;;2.90;;
32760;SDS011;19126;47.472;7.850;2022-09-09T05:27:16;9.98;;;3.35;;
32760;SDS011;19126;47.472;7.850;2022-09-09T05:29:44;6.95;;;3.08;;
32760;SDS011;19126;47.472;7.850;2022-09-09T05:32:12;12.23;;;3.60;;
32760;SDS011;19126;47.472;7.850;2022-09-09T05:34:41;10.77;;;3.50;;
32760;SDS011;19126;47.472;7.850;2022-09-09T05:37:09;8.43;;;2.58;;
32760;SDS011;19126;47.472;7.850;2022-09-09T05:39:36;6.38;;;2.83;;
32760;SDS011;19126;47.472;7.850;2022-09-09T05:42:03;11.77;;;3.25;;
32760;SDS011;19126;47.472;7.850;2022-09-09T05:44:31;5.75;;;2.70;;
32760;SDS011;19126;47.472;7.850;2022-09-09T05:46:58;9.77;;;2.75;;
32760;SDS011;19126;47.472;7.850;2022-09-09T05:49:27;5.95;;;2.85;;
32760;SDS011;19126;47.472;7.850;2022-09-09T05:51:54;11.13;;;3.05;;
32760;SDS011;19126;47.472;7.850;2022-09-09T05:54:21;10.25;;;3.75;;
32760;SDS011;19126;47.472;7.850;2022-09-09T05:56:48;8.98;;;3.50;;
32760;SDS011;19126;47.472;7.850;2022-09-09T05:59:17;5.90;;;3.08;;
32760;SDS011;19126;47.472;7.850;2022-09-09T06:01:44;14.18;;;2.88;;
32760;SDS011;19126;47.472;7.850;2022-09-09T06:04:12;8.57;;;3.55;;
32760;SDS011;19126;47.472;7.850;2022-09-09T06:06:41;5.57;;;3.30;;
32760;SDS011;19126;47.472;7.850;2022-09-09T06:09:09;3.83;;;2.80;;
32760;SDS011;19126;47.472;7.850;2022-09-09T06:11:37;12.90;;;4.28;;
32760;SDS011;19126;47.472;7.850;2022-09-09T06:14:05;11.98;;;3.80;;
32760;SDS011;19126;47.472;7.850;2022-09-09T06:16:33;4.80;;;3.42;;
32760;SDS011;19126;47.472;7.850;2022-09-09T06:19:03;6.75;;;3.30;;
32760;SDS011;19126;47.472;7.850;2022-09-09T06:21:30;8.07;;;3.35;;
32760;SDS011;19126;47.472;7.850;2022-09-09T06:24:02;13.35;;;3.65;;
32760;SDS011;19126;47.472;7.850;2022-09-09T06:26:31;9.32;;;3.50;;
32760;SDS011;19126;47.472;7.850;2022-09-09T06:28:59;10.77;;;4.80;;
32760;SDS011;19126;47.472;7.850;2022-09-09T06:31:29;6.93;;;4.25;;
32760;SDS011;19126;47.472;7.850;2022-09-09T06:33:59;10.68;;;4.20;;
32760;SDS011;19126;47.472;7.850;2022-09-09T06:36:27;13.88;;;3.50;;
32760;SDS011;19126;47.472;7.850;2022-09-09T06:38:56;11.68;;;4.35;;
32760;SDS011;19126;47.472;7.850;2022-09-09T06:41:26;14.52;;;3.00;;
32760;SDS011;19126;47.472;7.850;2022-09-09T06:46:23;9.18;;;2.00;;
32760;SDS011;19126;47.472;7.850;2022-09-09T06:48:55;9.02;;;1.60;;
32760;SDS011;19126;47.472;7.850;2022-09-09T06:51:25;6.82;;;1.50;;
32760;SDS011;19126;47.472;7.850;2022-09-09T06:53:54;6.97;;;1.65;;
32760;SDS011;19126;47.472;7.850;2022-09-09T06:56:25;5.22;;;1.70;;
32760;SDS011;19126;47.472;7.850;2022-09-09T06:58:54;13.68;;;1.95;;
32760;SDS011;19126;47.472;7.850;2022-09-09T07:01:24;9.95;;;1.52;;
32760;SDS011;19126;47.472;7.850;2022-09-09T07:03:54;10.27;;;1.33;;
32760;SDS011;19126;47.472;7.850;2022-09-09T07:06:24;4.47;;;1.40;;
32760;SDS011;19126;47.472;7.850;2022-09-09T07:08:53;8.43;;;1.67;;
32760;SDS011;19126;47.472;7.850;2022-09-09T07:11:21;11.60;;;1.38;;
32760;SDS011;19126;47.472;7.850;2022-09-09T07:13:52;4.00;;;1.50;;
32760;SDS011;19126;47.472;7.850;2022-09-09T07:16:20;9.70;;;1.42;;
32760;SDS011;19126;47.472;7.850;2022-09-09T07:18:49;6.38;;;1.65;;
32760;SDS011;19126;47.472;7.850;2022-09-09T07:21:17;14.52;;;2.42;;
32760;SDS011;19126;47.472;7.850;2022-09-09T07:23:46;4.53;;;1.30;;
32760;SDS011;19126;47.472;7.850;2022-09-09T07:26:14;4.72;;;1.50;;
32760;SDS011;19126;47.472;7.850;2022-09-09T07:28:46;5.05;;;1.75;;
32760;SDS011;19126;47.472;7.850;2022-09-09T07:31:15;10.20;;;1.42;;
32760;SDS011;19126;47.472;7.850;2022-09-09T07:33:45;9.30;;;1.20;;
32760;SDS011;19126;47.472;7.850;2022-09-09T07:36:14;5.85;;;1.50;;
32760;SDS011;19126;47.472;7.850;2022-09-09T07:38:43;8.73;;;1.30;;
32760;SDS011;19126;47.472;7.850;2022-09-09T07:41:13;5.38;;;1.33;;
32760;SDS011;19126;47.472;7.850;2022-09-09T07:43:44;8.07;;;1.75;;
32760;SDS011;19126;47.472;7.850;2022-09-09T07:46:14;6.38;;;1.35;;
32760;SDS011;19126;47.472;7.850;2022-09-09T07:48:44;7.03;;;1.55;;
32760;SDS011;19126;47.472;7.850;2022-09-09T07:51:14;4.18;;;1.20;;
32760;SDS011;19126;47.472;7.850;2022-09-09T07:53:43;8.55;;;1.75;;
32760;SDS011;19126;47.472;7.850;2022-09-09T07:56:11;10.20;;;1.70;;
32760;SDS011;19126;47.472;7.850;2022-09-09T07:58:42;6.88;;;1.40;;
32760;SDS011;19126;47.472;7.850;2022-09-09T08:01:14;4.93;;;1.30;;
32760;SDS011;19126;47.472;7.850;2022-09-09T08:03:44;11.00;;;1.45;;
32760;SDS011;19126;47.472;7.850;2022-09-09T08:06:12;8.23;;;1.48;;
32760;SDS011;19126;47.472;7.850;2022-09-09T08:08:40;11.23;;;1.42;;
32760;SDS011;19126;47.472;7.850;2022-09-09T08:11:09;8.40;;;1.40;;
32760;SDS011;19126;47.472;7.850;2022-09-09T08:13:39;5.43;;;1.27;;
32760;SDS011;19126;47.472;7.850;2022-09-09T08:16:08;7.28;;;1.40;;
32760;SDS011;19126;47.472;7.850;2022-09-09T08:18:39;6.80;;;1.27;;
32760;SDS011;19126;47.472;7.850;2022-09-09T08:21:08;9.10;;;1.73;;
32760;SDS011;19126;47.472;7.850;2022-09-09T08:23:38;6.50;;;1.20;;
32760;SDS011;19126;47.472;7.850;2022-09-09T08:26:06;11.00;;;1.58;;
32760;SDS011;19126;47.472;7.850;2022-09-09T08:28:37;6.15;;;1.25;;
32760;SDS011;19126;47.472;7.850;2022-09-09T08:31:06;10.27;;;1.65;;
32760;SDS011;19126;47.472;7.850;2022-09-09T08:33:35;6.55;;;1.48;;
32760;SDS011;19126;47.472;7.850;2022-09-09T08:36:05;5.82;;;1.35;;
32760;SDS011;19126;47.472;7.850;2022-09-09T08:38:35;3.58;;;1.25;;
32760;SDS011;19126;47.472;7.850;2022-09-09T08:41:09;10.43;;;1.20;;
32760;SDS011;19126;47.472;7.850;2022-09-09T08:44:29;4.40;;;1.20;;
32760;SDS011;19126;47.472;7.850;2022-09-09T08:47:11;12.57;;;1.48;;
32760;SDS011;19126;47.472;7.850;2022-09-09T08:49:54;5.30;;;1.20;;
32760;SDS011;19126;47.472;7.850;2022-09-09T08:52:49;4.20;;;1.00;;
32760;SDS011;19126;47.472;7.850;2022-09-09T08:55:25;5.32;;;1.50;;
32760;SDS011;19126;47.472;7.850;2022-09-09T08:58:06;7.82;;;1.40;;
32760;SDS011;19126;47.472;7.850;2022-09-09T09:00:42;6.30;;;1.27;;
32760;SDS011;19126;47.472;7.850;2022-09-09T09:03:29;6.05;;;1.00;;
32760;SDS011;19126;47.472;7.850;2022-09-09T09:06:11;6.38;;;1.25;;
32760;SDS011;19126;47.472;7.850;2022-09-09T09:08:56;3.78;;;0.98;;
32760;SDS011;19126;47.472;7.850;2022-09-09T09:11:33;7.57;;;1.20;;
32760;SDS011;19126;47.472;7.850;2022-09-09T09:14:05;5.20;;;1.00;;
32760;SDS011;19126;47.472;7.850;2022-09-09T09:16:45;6.75;;;1.00;;
32760;SDS011;19126;47.472;7.850;2022-09-09T09:19:18;5.32;;;1.27;;
32760;SDS011;19126;47.472;7.850;2022-09-09T09:21:48;7.13;;;1.73;;
32760;SDS011;19126;47.472;7.850;2022-09-09T09:24:25;5.72;;;1.15;;
32760;SDS011;19126;47.472;7.850;2022-09-09T09:27:04;9.40;;;1.35;;
32760;SDS011;19126;47.472;7.850;2022-09-09T09:29:39;4.85;;;1.02;;
32760;SDS011;19126;47.472;7.850;2022-09-09T09:32:10;4.53;;;1.05;;
32760;SDS011;19126;47.472;7.850;2022-09-09T09:34:41;8.68;;;1.17;;
32760;SDS011;19126;47.472;7.850;2022-09-09T09:37:12;10.00;;;1.20;;
32760;SDS011;19126;47.472;7.850;2022-09-09T09:39:46;7.25;;;1.88;;
32760;SDS011;19126;47.472;7.850;2022-09-09T09:42:15;9.82;;;1.25;;
32760;SDS011;19126;47.472;7.850;2022-09-09T09:44:43;5.40;;;1.20;;
32760;SDS011;19126;47.472;7.850;2022-09-09T09:47:11;8.50;;;1.42;;
32760;SDS011;19126;47.472;7.850;2022-09-09T09:49:50;5.80;;;1.13;;
32760;SDS011;19126;47.472;7.850;2022-09-09T09:52:21;3.42;;;1.10;;
32760;SDS011;19126;47.472;7.850;2022-09-09T09:54:52;3.08;;;1.00;;
32760;SDS011;19126;47.472;7.850;2022-09-09T09:57:22;8.13;;;1.27;;
32760;SDS011;19126;47.472;7.850;2022-09-09T10:00:00;5.90;;;1.45;;
32760;SDS011;19126;47.472;7.850;2022-09-09T10:02:39;4.05;;;1.10;;
32760;SDS011;19126;47.472;7.850;2022-09-09T10:05:12;2.55;;;1.13;;
32760;SDS011;19126;47.472;7.850;2022-09-09T10:07:43;3.78;;;0.70;;
32760;SDS011;19126;47.472;7.850;2022-09-09T10:10:13;4.72;;;1.10;;
32760;SDS011;19126;47.472;7.850;2022-09-09T10:12:57;6.57;;;1.23;;
32760;SDS011;19126;47.472;7.850;2022-09-09T10:15:36;6.70;;;0.98;;
32760;SDS011;19126;47.472;7.850;2022-09-09T10:18:19;5.72;;;1.30;;
32760;SDS011;19126;47.472;7.850;2022-09-09T10:21:11;5.72;;;1.10;;
32760;SDS011;19126;47.472;7.850;2022-09-09T10:24:02;5.65;;;1.23;;
32760;SDS011;19126;47.472;7.850;2022-09-09T10:26:50;5.57;;;1.25;;
32760;SDS011;19126;47.472;7.850;2022-09-09T10:29:38;5.90;;;1.15;;
32760;SDS011;19126;47.472;7.850;2022-09-09T10:35:12;4.13;;;1.10;;
32760;SDS011;19126;47.472;7.850;2022-09-09T10:37:57;5.53;;;1.10;;
32760;SDS011;19126;47.472;7.850;2022-09-09T10:40:41;3.65;;;1.23;;
32760;SDS011;19126;47.472;7.850;2022-09-09T10:43:20;4.20;;;1.23;;
32760;SDS011;19126;47.472;7.850;2022-09-09T10:46:03;7.63;;;1.40;;
32760;SDS011;19126;47.472;7.850;2022-09-09T10:48:45;7.03;;;1.27;;
32760;SDS011;19126;47.472;7.850;2022-09-09T10:51:30;5.32;;;1.10;;
32760;SDS011;19126;47.472;7.850;2022-09-09T10:54:20;8.40;;;1.77;;
32760;SDS011;19126;47.472;7.850;2022-09-09T10:57:08;8.02;;;1.00;;
32760;SDS011;19126;47.472;7.850;2022-09-09T10:59:46;5.28;;;1.25;;
32760;SDS011;19126;47.472;7.850;2022-09-09T11:02:21;3.38;;;1.00;;
32760;SDS011;19126;47.472;7.850;2022-09-09T11:04:55;7.40;;;1.02;;
32760;SDS011;19126;47.472;7.850;2022-09-09T11:07:30;2.22;;;0.90;;
32760;SDS011;19126;47.472;7.850;2022-09-09T11:10:06;5.45;;;1.08;;
32760;SDS011;19126;47.472;7.850;2022-09-09T11:12:45;8.73;;;1.15;;
32760;SDS011;19126;47.472;7.850;2022-09-09T11:15:18;3.80;;;0.95;;
32760;SDS011;19126;47.472;7.850;2022-09-09T11:17:52;9.32;;;1.38;;
32760;SDS011;19126;47.472;7.850;2022-09-09T11:20:23;3.20;;;0.85;;
32760;SDS011;19126;47.472;7.850;2022-09-09T11:22:52;7.55;;;1.38;;
32760;SDS011;19126;47.472;7.850;2022-09-09T11:25:28;6.28;;;1.50;;
32760;SDS011;19126;47.472;7.850;2022-09-09T11:28:09;9.05;;;1.65;;
32760;SDS011;19126;47.472;7.850;2022-09-09T11:31:19;6.05;;;1.25;;
32760;SDS011;19126;47.472;7.850;2022-09-09T11:34:08;2.53;;;0.95;;
32760;SDS011;19126;47.472;7.850;2022-09-09T11:37:06;5.88;;;1.33;;
32760;SDS011;19126;47.472;7.850;2022-09-09T11:39:57;8.10;;;1.27;;
32760;SDS011;19126;47.472;7.850;2022-09-09T11:42:46;4.78;;;1.23;;
32760;SDS011;19126;47.472;7.850;2022-09-09T11:45:22;5.35;;;1.00;;
32760;SDS011;19126;47.472;7.850;2022-09-09T11:47:55;5.07;;;0.80;;
32760;SDS011;19126;47.472;7.850;2022-09-09T11:50:28;7.07;;;1.10;;
32760;SDS011;19126;47.472;7.850;2022-09-09T11:53:04;2.15;;;0.88;;
32760;SDS011;19126;47.472;7.850;2022-09-09T11:55:47;5.00;;;1.17;;
32760;SDS011;19126;47.472;7.850;2022-09-09T11:58:28;4.00;;;1.20;;
32760;SDS011;19126;47.472;7.850;2022-09-09T12:01:13;6.05;;;1.08;;
32760;SDS011;19126;47.472;7.850;2022-09-09T12:04:05;2.95;;;0.60;;
32760;SDS011;19126;47.472;7.850;2022-09-09T12:07:02;7.70;;;0.95;;
32760;SDS011;19126;47.472;7.850;2022-09-09T12:09:48;6.40;;;0.82;;
32760;SDS011;19126;47.472;7.850;2022-09-09T12:12:24;4.78;;;1.10;;
32760;SDS011;19126;47.472;7.850;2022-09-09T12:14:58;7.03;;;1.13;;
32760;SDS011;19126;47.472;7.850;2022-09-09T12:17:42;4.07;;;1.23;;
32760;SDS011;19126;47.472;7.850;2022-09-09T12:20:14;6.45;;;1.13;;
32760;SDS011;19126;47.472;7.850;2022-09-09T12:22:47;4.70;;;0.80;;
32760;SDS011;19126;47.472;7.850;2022-09-09T12:25:36;6.03;;;1.00;;
32760;SDS011;19126;47.472;7.850;2022-09-09T12:28:36;4.57;;;1.02;;
32760;SDS011;19126;47.472;7.850;2022-09-09T12:31:14;4.07;;;0.90;;
32760;SDS011;19126;47.472;7.850;2022-09-09T12:33:47;4.32;;;1.00;;
32760;SDS011;19126;47.472;7.850;2022-09-09T12:36:16;4.68;;;1.00;;
32760;SDS011;19126;47.472;7.850;2022-09-09T12:38:48;7.95;;;1.75;;
32760;SDS011;19126;47.472;7.850;2022-09-09T12:41:18;6.82;;;1.10;;
32760;SDS011;19126;47.472;7.850;2022-09-09T12:43:48;8.80;;;1.60;;
32760;SDS011;19126;47.472;7.850;2022-09-09T12:46:19;5.03;;;0.95;;
32760;SDS011;19126;47.472;7.850;2022-09-09T12:48:56;7.20;;;0.90;;
32760;SDS011;19126;47.472;7.850;2022-09-09T12:51:25;5.45;;;1.20;;
32760;SDS011;19126;47.472;7.850;2022-09-09T12:53:56;7.57;;;1.63;;
32760;SDS011;19126;47.472;7.850;2022-09-09T12:56:24;5.78;;;1.27;;
32760;SDS011;19126;47.472;7.850;2022-09-09T12:58:56;3.78;;;1.30;;
32760;SDS011;19126;47.472;7.850;2022-09-09T13:01:27;8.23;;;1.23;;
32760;SDS011;19126;47.472;7.850;2022-09-09T13:03:56;4.15;;;0.95;;
32760;SDS011;19126;47.472;7.850;2022-09-09T13:06:26;7.43;;;1.27;;
32760;SDS011;19126;47.472;7.850;2022-09-09T13:08:56;4.32;;;1.00;;
32760;SDS011;19126;47.472;7.850;2022-09-09T13:11:26;4.72;;;0.82;;
32760;SDS011;19126;47.472;7.850;2022-09-09T13:13:57;4.78;;;0.98;;
32760;SDS011;19126;47.472;7.850;2022-09-09T13:16:26;6.25;;;1.10;;
32760;SDS011;19126;47.472;7.850;2022-09-09T13:18:56;4.80;;;1.10;;
32760;SDS011;19126;47.472;7.850;2022-09-09T13:21:33;9.02;;;1.23;;
32760;SDS011;19126;47.472;7.850;2022-09-09T13:24:03;13.27;;;1.25;;
32760;SDS011;19126;47.472;7.850;2022-09-09T13:26:33;8.55;;;1.80;;
32760;SDS011;19126;47.472;7.850;2022-09-09T13:29:07;3.25;;;1.30;;
32760;SDS011;19126;47.472;7.850;2022-09-09T13:31:43;3.92;;;0.80;;
32760;SDS011;19126;47.472;7.850;2022-09-09T13:34:11;4.88;;;1.15;;
32760;SDS011;19126;47.472;7.850;2022-09-09T13:36:41;2.25;;;1.00;;
32760;SDS011;19126;47.472;7.850;2022-09-09T13:39:14;3.88;;;0.85;;
32760;SDS011;19126;47.472;7.850;2022-09-09T13:41:44;4.47;;;0.85;;
32760;SDS011;19126;47.472;7.850;2022-09-09T13:44:14;9.00;;;1.00;;
32760;SDS011;19126;47.472;7.850;2022-09-09T13:46:58;6.53;;;1.15;;
32760;SDS011;19126;47.472;7.850;2022-09-09T13:49:29;4.20;;;0.73;;
32760;SDS011;19126;47.472;7.850;2022-09-09T13:52:08;2.85;;;0.88;;
32760;SDS011;19126;47.472;7.850;2022-09-09T13:54:38;10.27;;;1.17;;
32760;SDS011;19126;47.472;7.850;2022-09-09T13:57:11;7.45;;;1.08;;
32760;SDS011;19126;47.472;7.850;2022-09-09T13:59:43;3.92;;;1.10;;
32760;SDS011;19126;47.472;7.850;2022-09-09T14:02:11;5.50;;;1.15;;
32760;SDS011;19126;47.472;7.850;2022-09-09T14:04:38;5.15;;;1.08;;
32760;SDS011;19126;47.472;7.850;2022-09-09T14:07:09;3.05;;;0.90;;
32760;SDS011;19126;47.472;7.850;2022-09-09T14:09:38;6.53;;;1.23;;
32760;SDS011;19126;47.472;7.850;2022-09-09T14:12:08;2.75;;;0.57;;
32760;SDS011;19126;47.472;7.850;2022-09-09T14:14:36;7.80;;;0.70;;
32760;SDS011;19126;47.472;7.850;2022-09-09T14:17:04;4.93;;;0.82;;
32760;SDS011;19126;47.472;7.850;2022-09-09T14:19:31;5.40;;;0.90;;
32760;SDS011;19126;47.472;7.850;2022-09-09T14:21:58;5.93;;;0.82;;
32760;SDS011;19126;47.472;7.850;2022-09-09T14:24:27;4.18;;;1.00;;
32760;SDS011;19126;47.472;7.850;2022-09-09T14:26:54;6.28;;;1.10;;
32760;SDS011;19126;47.472;7.850;2022-09-09T14:29:22;5.15;;;0.95;;
32760;SDS011;19126;47.472;7.850;2022-09-09T14:31:50;3.63;;;0.90;;
32760;SDS011;19126;47.472;7.850;2022-09-09T14:34:17;4.38;;;1.00;;
32760;SDS011;19126;47.472;7.850;2022-09-09T14:36:44;3.95;;;1.17;;
32760;SDS011;19126;47.472;7.850;2022-09-09T14:39:11;3.88;;;0.80;;
32760;SDS011;19126;47.472;7.850;2022-09-09T14:41:40;5.97;;;1.25;;
32760;SDS011;19126;47.472;7.850;2022-09-09T14:44:07;9.50;;;1.10;;
32760;SDS011;19126;47.472;7.850;2022-09-09T14:46:35;6.35;;;1.20;;
32760;SDS011;19126;47.472;7.850;2022-09-09T14:49:02;7.07;;;1.05;;
32760;SDS011;19126;47.472;7.850;2022-09-09T14:51:29;4.82;;;0.98;;
32760;SDS011;19126;47.472;7.850;2022-09-09T14:53:57;6.07;;;0.93;;
32760;SDS011;19126;47.472;7.850;2022-09-09T14:56:27;5.60;;;1.05;;
32760;SDS011;19126;47.472;7.850;2022-09-09T14:59:01;2.20;;;0.75;;
32760;SDS011;19126;47.472;7.850;2022-09-09T15:01:29;7.82;;;1.20;;
32760;SDS011;19126;47.472;7.850;2022-09-09T15:03:59;6.28;;;1.20;;
32760;SDS011;19126;47.472;7.850;2022-09-09T15:06:29;4.40;;;1.13;;
32760;SDS011;19126;47.472;7.850;2022-09-09T15:08:59;3.65;;;0.90;;
32760;SDS011;19126;47.472;7.850;2022-09-09T15:11:28;2.03;;;0.75;;
32760;SDS011;19126;47.472;7.850;2022-09-09T15:13:57;4.10;;;1.10;;
32760;SDS011;19126;47.472;7.850;2022-09-09T15:16:27;3.47;;;0.65;;
32760;SDS011;19126;47.472;7.850;2022-09-09T15:18:55;2.22;;;0.80;;
32760;SDS011;19126;47.472;7.850;2022-09-09T15:21:25;11.80;;;1.30;;
32760;SDS011;19126;47.472;7.850;2022-09-09T15:23:54;1.90;;;0.52;;
32760;SDS011;19126;47.472;7.850;2022-09-09T15:26:21;2.40;;;0.70;;
32760;SDS011;19126;47.472;7.850;2022-09-09T15:28:49;2.40;;;0.70;;
32760;SDS011;19126;47.472;7.850;2022-09-09T15:31:17;3.75;;;0.80;;